Time;durP1;ratioP1;P1;durP2;ratioP2;P2;SDS_P1;SDS_P2;PMS_P1;PMS_P2;Temp;Humidity;BMP_temperature;BMP_pressure;BME280_temperature;BME280_humidity;BME280_pressure;Samples;Min_cycle;Max_cycle;Signal;HPM_P1;HPM_P2
2022/11/18 00:01:11;;;;;;;0.63;0.47;;;7.50;99.90;;;6.84;100.00;95461.50;4944127;28;20039;-41
2022/11/18 00:03:37;;;;;;;;;;;7.50;99.90;;;6.86;100.00;95464.06;4941737;28;20181;-40
2022/11/18 00:06:03;;;;;;;1.25;0.40;;;7.50;99.90;;;6.84;100.00;95458.06;4943816;28;20450;-41
2022/11/18 00:08:30;;;;;;;0.55;0.38;;;7.60;99.90;;;6.91;100.00;95463.78;4950593;28;20156;-41
2022/11/18 00:10:55;;;;;;;0.50;0.43;;;7.60;99.90;;;6.92;100.00;95461.09;4937905;28;20066;-42
2022/11/18 00:16:09;;;;;;;3.63;0.57;;;7.60;99.90;;;6.94;100.00;95454.00;4931598;28;20037;-40
2022/11/18 00:18:35;;;;;;;1.17;0.60;;;7.60;99.90;;;6.94;100.00;95445.31;4934774;28;20035;-41
2022/11/18 00:21:03;;;;;;;1.83;0.40;;;7.60;99.90;;;6.95;100.00;95458.31;4936750;28;20707;-41
2022/11/18 00:23:29;;;;;;;0.35;0.30;;;7.60;99.90;;;6.92;100.00;95455.84;4938443;28;20129;-41
2022/11/18 00:25:55;;;;;;;0.40;0.30;;;7.60;99.90;;;6.95;100.00;95449.63;4937246;28;20058;-41
2022/11/18 00:28:20;;;;;;;1.77;0.20;;;7.60;99.90;;;6.97;100.00;95453.00;4940495;28;20047;-42
2022/11/18 00:30:46;;;;;;;0.30;0.20;;;7.60;99.90;;;6.99;100.00;95449.34;4942487;28;20043;-41
2022/11/18 00:33:12;;;;;;;0.57;0.25;;;7.70;99.90;;;7.02;100.00;95450.97;4942327;28;20413;-40
2022/11/18 00:35:37;;;;;;;0.82;0.30;;;7.70;99.90;;;7.03;100.00;95453.53;4939207;28;20038;-40
2022/11/18 00:38:03;;;;;;;0.73;0.22;;;7.70;99.90;;;7.04;100.00;95451.75;4943341;28;20398;-41
2022/11/18 00:40:29;;;;;;;0.98;0.40;;;7.70;99.90;;;7.05;100.00;95462.16;4942524;28;20034;-43
2022/11/18 00:42:55;;;;;;;0.55;0.45;;;7.70;99.90;;;7.07;100.00;95464.69;4944200;28;20759;-41
2022/11/18 00:45:22;;;;;;;1.65;0.60;;;7.70;99.90;;;7.07;100.00;95465.53;4940656;28;20037;-40
2022/11/18 00:47:48;;;;;;;0.68;0.30;;;7.70;99.90;;;7.06;100.00;95465.59;4945775;28;20109;-41
2022/11/18 00:50:14;;;;;;;0.80;0.50;;;7.70;99.90;;;7.04;100.00;95468.31;4938781;28;20124;-42
2022/11/18 00:52:40;;;;;;;0.57;0.30;;;7.70;99.90;;;7.04;100.00;95470.94;4939168;28;20035;-40
2022/11/18 00:55:06;;;;;;;0.32;0.25;;;7.70;99.90;;;7.03;100.00;95461.38;4947748;28;20746;-40
2022/11/18 00:57:32;;;;;;;1.00;0.40;;;7.70;99.90;;;7.05;100.00;95462.16;4944261;28;20725;-41
2022/11/18 00:59:58;;;;;;;0.70;0.30;;;7.70;99.90;;;7.06;100.00;95466.44;4937762;28;20037;-41
2022/11/18 01:02:23;;;;;;;0.60;0.40;;;7.70;99.90;;;7.05;100.00;95467.41;4938457;28;20026;-40
2022/11/18 01:04:49;;;;;;;1.65;0.50;;;7.70;99.90;;;7.01;100.00;95462.38;4941450;28;20035;-41
2022/11/18 01:07:15;;;;;;;1.45;0.63;;;7.70;99.90;;;7.04;100.00;95465.69;4939993;28;20548;-40
2022/11/18 01:09:40;;;;;;;2.15;0.82;;;7.70;99.90;;;7.05;100.00;95464.78;4939733;28;20348;-40
2022/11/18 01:14:53;;;;;;;2.08;0.90;;;7.70;99.90;;;7.02;100.00;95464.09;4933567;28;20466;-40
2022/11/18 01:17:19;;;;;;;3.40;0.98;;;7.70;99.90;;;7.05;100.00;95467.41;4945851;28;20035;-40
2022/11/18 01:19:45;;;;;;;3.25;1.20;;;7.70;99.90;;;7.05;100.00;95466.53;4941626;28;20042;-41
2022/11/18 01:22:11;;;;;;;1.67;0.93;;;7.70;99.90;;;7.00;100.00;95458.06;4940489;28;20481;-41
2022/11/18 01:24:36;;;;;;;1.42;0.60;;;7.70;99.90;;;6.90;100.00;95442.00;4937813;28;20307;-41
2022/11/18 01:27:02;;;;;;;3.20;0.88;;;7.70;99.90;;;7.04;100.00;95464.84;4944685;28;20038;-41
2022/11/18 01:29:28;;;;;;;1.48;0.70;;;7.70;99.90;;;7.03;100.00;95468.38;4946851;28;20031;-41
2022/11/18 01:31:54;;;;;;;2.17;0.80;;;7.70;99.90;;;7.05;100.00;95472.63;4943895;28;20035;-42
2022/11/18 01:34:20;;;;;;;2.15;0.55;;;7.70;99.90;;;7.03;100.00;95471.00;4947370;28;20124;-40
2022/11/18 01:36:45;;;;;;;1.17;0.50;;;7.70;99.90;;;7.02;100.00;95464.94;4945180;28;20034;-41
2022/11/18 01:39:11;;;;;;;1.92;0.90;;;7.70;99.90;;;7.06;100.00;95473.47;4943178;28;20026;-40
2022/11/18 01:41:37;;;;;;;1.67;0.57;;;7.70;99.90;;;7.04;100.00;95481.41;4943923;28;20757;-41
2022/11/18 01:44:25;;;;;;;1.20;0.57;;;7.70;99.90;;;7.04;100.00;95476.16;4947072;28;21308;-41
2022/11/18 01:46:51;;;;;;;2.25;0.60;;;7.70;99.90;;;7.04;100.00;95489.28;4944955;28;20095;-41
2022/11/18 01:49:17;;;;;;;0.52;0.45;;;7.70;99.90;;;7.04;100.00;95486.66;4946736;28;20090;-41
2022/11/18 01:51:54;;;;;;;1.30;0.40;;;7.70;99.90;;;7.06;100.00;95483.97;4950826;28;20378;-41
2022/11/18 01:54:35;;;;;;;2.83;0.50;;;7.70;99.90;;;6.92;100.00;95468.97;4952129;28;20022;-41
2022/11/18 01:57:07;;;;;;;0.52;0.40;;;7.70;99.90;;;7.05;100.00;95496.22;4953830;28;20493;-41
2022/11/18 01:59:38;;;;;;;0.30;0.30;;;7.70;99.90;;;7.02;100.00;95490.28;4969502;28;20042;-41
2022/11/18 02:02:11;;;;;;;2.75;0.38;;;7.70;99.90;;;7.01;100.00;95491.22;4955592;28;20042;-41
2022/11/18 02:04:44;;;;;;;2.75;0.50;;;7.60;99.90;;;6.97;100.00;95497.56;4949627;28;20035;-41
2022/11/18 02:07:11;;;;;;;0.45;0.30;;;7.60;99.90;;;6.95;100.00;95499.41;4946232;28;20050;-42
2022/11/18 02:09:37;;;;;;;1.00;0.30;;;7.60;99.90;;;6.91;100.00;95503.09;4936642;28;20026;-41
2022/11/18 02:12:04;;;;;;;2.13;0.43;;;7.60;99.90;;;6.91;100.00;95508.34;4934304;28;20408;-41
2022/11/18 02:14:34;;;;;;;0.68;0.20;;;7.60;99.90;;;6.90;100.00;95504.88;4939830;28;20501;-42
2022/11/18 02:17:39;;;;;;;0.98;0.30;;;7.60;99.90;;;6.88;100.00;95514.59;4944598;28;20228;-41
2022/11/18 02:20:08;;;;;;;2.33;0.40;;;7.60;99.90;;;6.86;100.00;95514.69;4939697;28;20120;-43
2022/11/18 02:22:52;;;;;;;0.65;0.20;;;7.50;99.90;;;6.85;100.00;95517.38;4948468;28;20587;-42
2022/11/18 02:25:44;;;;;;;2.72;0.30;;;7.50;99.90;;;6.85;100.00;95517.38;4946037;28;20161;-41
2022/11/18 02:28:35;;;;;;;1.90;0.33;;;7.50;99.90;;;6.86;100.00;95521.69;4947470;28;20039;-41
2022/11/18 02:31:14;;;;;;;1.10;0.35;;;7.50;99.90;;;6.85;100.00;95520.84;4950172;28;20114;-41
2022/11/18 02:34:05;;;;;;;0.68;0.20;;;7.50;99.90;;;6.84;100.00;95520.94;4952421;28;20304;-41
2022/11/18 02:36:59;;;;;;;3.35;0.40;;;7.50;99.90;;;6.82;100.00;95521.00;4953827;28;20035;-42
2022/11/18 02:39:37;;;;;;;1.42;0.40;;;7.50;99.90;;;6.84;100.00;95521.78;4955446;28;20114;-40
2022/11/18 02:42:09;;;;;;;0.93;0.30;;;7.50;99.90;;;6.82;100.00;95528.00;4955336;28;20114;-41
2022/11/18 02:44:39;;;;;;;1.23;0.32;;;7.50;99.90;;;6.83;100.00;95527.09;4963392;28;20035;-41
2022/11/18 02:47:10;;;;;;;1.05;0.30;;;7.50;99.90;;;6.83;100.00;95527.94;4950690;28;20039;-41
2022/11/18 02:49:45;;;;;;;2.00;0.25;;;7.50;99.90;;;6.84;100.00;95527.00;4954357;28;20027;-41
2022/11/18 02:52:12;;;;;;;1.42;0.50;;;7.50;99.90;;;6.81;100.00;95521.94;4938147;28;20039;-42
2022/11/18 02:54:42;;;;;;;1.45;0.52;;;7.50;99.90;;;6.81;100.00;95526.31;4949359;28;20311;-42
2022/11/18 02:57:08;;;;;;;0.95;0.40;;;7.50;99.90;;;6.85;100.00;95528.69;4944916;28;20065;-41
2022/11/18 02:59:34;;;;;;;0.75;0.40;;;7.50;99.90;;;6.83;100.00;95529.72;4952372;28;20540;-42
2022/11/18 03:02:00;;;;;;;1.33;0.40;;;7.50;99.90;;;6.83;100.00;95535.78;4941023;28;20039;-42
2022/11/18 03:04:27;;;;;;;0.60;0.50;;;7.50;99.90;;;6.81;100.00;95536.81;4952769;28;20039;-41
2022/11/18 03:07:29;;;;;;;0.95;0.30;;;7.50;99.90;;;6.81;100.00;95544.66;4940220;28;20035;-40
2022/11/18 03:09:56;;;;;;;3.22;0.50;;;7.50;99.90;;;6.79;100.00;95552.59;4942989;28;20047;-42
2022/11/18 03:12:44;;;;;;;0.95;0.38;;;7.50;99.90;;;6.79;100.00;95552.59;4951534;28;20408;-41
2022/11/18 03:15:35;;;;;;;1.65;0.40;;;7.50;99.90;;;6.80;100.00;95566.53;4947765;28;20405;-41
2022/11/18 03:18:17;;;;;;;1.35;0.55;;;7.50;99.90;;;6.77;100.00;95564.09;4939833;28;20035;-43
2022/11/18 03:21:13;;;;;;;1.60;0.77;;;7.50;99.90;;;6.77;100.00;95566.72;4946082;28;20595;-41
2022/11/18 03:24:05;;;;;;;0.77;0.40;;;7.40;99.90;;;6.75;100.00;95579.03;4945046;28;20046;-41
2022/11/18 03:26:35;;;;;;;1.80;0.40;;;7.40;99.90;;;6.75;100.00;95577.28;4940310;28;20486;-40
2022/11/18 03:29:18;;;;;;;0.57;0.40;;;7.40;99.90;;;6.76;100.00;95578.94;4935616;28;20140;-41
2022/11/18 03:32:09;;;;;;;1.42;0.38;;;7.40;99.90;;;6.75;100.00;95582.50;4930100;28;20114;-41
2022/11/18 03:34:48;;;;;;;0.70;0.20;;;7.40;99.90;;;6.78;100.00;95589.34;4935623;28;20027;-41
2022/11/18 03:37:17;;;;;;;1.50;0.30;;;7.40;99.90;;;6.79;100.00;95589.28;4942703;28;20019;-42
2022/11/18 03:39:50;;;;;;;1.77;0.80;;;7.40;99.90;;;6.76;100.00;95604.31;4939340;28;20043;-41
2022/11/18 03:42:38;;;;;;;1.00;0.40;;;7.40;99.90;;;6.59;100.00;95586.84;4982820;23;20583;-38
2022/11/18 03:45:18;;;;;;;1.65;0.30;;;7.40;99.90;;;6.68;100.00;95616.03;4969354;28;20692;-38
2022/11/18 03:47:57;;;;;;;1.75;0.40;;;7.40;99.90;;;6.68;100.00;95617.81;4976733;28;20180;-41
2022/11/18 03:50:31;;;;;;;2.40;0.40;;;7.40;99.90;;;6.54;100.00;95615.84;4973965;28;20480;-40
2022/11/18 03:52:58;;;;;;;0.95;0.20;;;7.30;99.90;;;6.59;100.00;95618.25;4972488;28;24329;-40
2022/11/18 03:55:32;;;;;;;1.38;0.40;;;7.30;99.90;;;6.60;100.00;95631.25;4967809;28;20033;-40
2022/11/18 03:58:16;;;;;;;1.00;0.47;;;7.30;99.90;;;6.58;100.00;95622.63;4971110;28;20060;-40
2022/11/18 04:00:46;;;;;;;4.30;0.40;;;7.30;99.90;;;6.53;100.00;95627.25;4968044;28;20143;-40
2022/11/18 04:03:13;;;;;;;4.00;0.52;;;7.20;99.90;;;6.53;100.00;95635.09;4969449;28;20080;-40
2022/11/18 04:05:41;;;;;;;0.52;0.20;;;7.30;99.90;;;6.48;100.00;95634.50;4975488;28;20048;-41
2022/11/18 04:08:14;;;;;;;0.98;0.25;;;7.20;99.90;;;6.40;100.00;95632.25;4973360;28;20132;-40
2022/11/18 04:10:48;;;;;;;0.57;0.30;;;7.10;99.90;;;6.41;100.00;95640.97;4959238;28;20399;-40
2022/11/18 04:13:24;;;;;;;1.33;0.35;;;7.10;99.90;;;6.39;100.00;95640.16;4986929;28;20042;-40
2022/11/18 04:15:50;;;;;;;1.50;0.38;;;7.10;99.90;;;6.34;100.00;95643.03;4985161;28;20030;-40
2022/11/18 04:18:16;;;;;;;1.15;0.50;;;7.10;99.90;;;6.32;100.00;95642.25;4986450;28;20027;-40
2022/11/18 04:20:42;;;;;;;10.57;1.00;;;7.10;99.90;;;6.33;100.00;95640.47;4984657;28;20034;-40
2022/11/18 04:23:08;;;;;;;0.10;0.10;;;7.10;99.90;;;6.16;100.00;95634.28;4983344;28;20374;-40
2022/11/18 04:25:34;;;;;;;0.85;0.20;;;7.00;99.90;;;6.19;100.00;95647.22;4982962;28;20057;-40
2022/11/18 04:27:59;;;;;;;1.65;0.20;;;6.90;99.90;;;6.18;100.00;95656.00;4979912;28;20038;-40
2022/11/18 04:30:25;;;;;;;0.32;0.30;;;6.90;99.90;;;6.19;100.00;95660.31;4986833;28;20393;-40
2022/11/18 04:32:51;;;;;;;0.38;0.20;;;6.90;99.90;;;6.17;100.00;95663.91;4985243;28;20136;-40
2022/11/18 04:35:16;;;;;;;0.75;0.20;;;6.90;99.90;;;6.13;100.00;95657.97;4987099;28;20038;-40
2022/11/18 04:37:42;;;;;;;0.65;0.20;;;6.80;99.90;;;6.13;100.00;95659.75;4983821;28;20490;-40
2022/11/18 04:40:09;;;;;;;0.98;0.20;;;6.90;99.90;;;6.09;100.00;95666.91;4985966;28;20040;-40
2022/11/18 04:42:35;;;;;;;0.65;0.20;;;6.80;99.90;;;6.07;100.00;95664.34;4985163;28;20656;-40
2022/11/18 04:45:01;;;;;;;1.00;0.35;;;6.80;99.90;;;5.93;100.00;95648.41;4989302;28;20037;-40
2022/11/18 04:47:27;;;;;;;0.20;0.20;;;6.80;99.90;;;6.02;100.00;95666.31;4988923;28;20037;-40
2022/11/18 04:49:52;;;;;;;0.20;0.20;;;6.70;99.90;;;6.01;100.00;95662.03;4979370;28;20143;-40
2022/11/18 04:52:18;;;;;;;0.68;0.30;;;6.70;99.90;;;6.01;100.00;95658.53;4981617;28;20029;-40
2022/11/18 04:54:45;;;;;;;1.50;0.40;;;6.70;99.90;;;5.95;100.00;95656.19;4982384;28;20488;-40
2022/11/18 04:57:11;;;;;;;1.77;0.30;;;6.70;99.90;;;5.98;100.00;95656.09;4981791;28;20026;-40
2022/11/18 04:59:37;;;;;;;0.85;0.60;;;6.70;99.90;;;5.82;100.00;95635.84;4980533;28;20621;-40
2022/11/18 05:02:03;;;;;;;1.33;0.60;;;6.70;99.90;;;6.03;100.00;95675.00;4970191;28;20137;-40
2022/11/18 05:04:32;;;;;;;1.23;0.57;;;6.70;99.90;;;6.03;100.00;95667.16;4976336;28;20044;-40
2022/11/18 05:07:00;;;;;;;1.58;0.52;;;6.70;99.90;;;6.05;100.00;95673.19;4983554;28;20312;-40
2022/11/18 05:09:26;;;;;;;0.52;0.32;;;6.70;99.90;;;6.00;100.00;95672.56;4985713;28;20042;-40
2022/11/18 05:14:37;;;;;;;0.55;0.30;;;6.80;99.90;;;6.00;100.00;95676.03;4983324;28;20061;-38
2022/11/18 05:17:06;;;;;;;0.20;0.10;;;6.70;99.90;;;5.91;100.00;95661.56;4986195;28;20041;-39
2022/11/18 05:19:32;;;;;;;1.15;0.32;;;6.70;99.90;;;6.05;100.00;95683.66;4980273;28;20064;-40
2022/11/18 05:21:59;;;;;;;0.35;0.10;;;6.70;99.90;;;6.07;100.00;95684.44;4984937;28;20479;-40
2022/11/18 05:24:25;;;;;;;0.50;0.20;;;6.80;99.90;;;6.08;100.00;95687.00;4983940;28;20116;-40
2022/11/18 05:26:52;;;;;;;1.35;0.30;;;6.80;99.90;;;6.08;100.00;95684.38;4988150;28;20561;-40
2022/11/18 05:29:19;;;;;;;0.20;0.20;;;6.80;99.90;;;6.09;100.00;95682.59;4986251;28;20387;-39
2022/11/18 05:31:46;;;;;;;1.08;0.20;;;6.80;99.90;;;6.09;100.00;95685.22;4976525;28;20178;-40
2022/11/18 05:34:12;;;;;;;1.45;0.40;;;6.80;99.90;;;6.04;100.00;95677.56;4985490;28;20402;-40
2022/11/18 05:36:38;;;;;;;0.17;0.17;;;6.80;99.90;;;6.08;100.00;95694.84;4985877;28;20033;-40
2022/11/18 05:39:03;;;;;;;0.68;0.13;;;6.80;99.90;;;5.92;100.00;95678.09;4982069;28;21056;-40
2022/11/18 05:44:14;;;;;;;1.50;0.28;;;6.70;99.90;;;5.94;100.00;95681.50;4980631;28;20426;-39
2022/11/18 05:46:39;;;;;;;0.52;0.20;;;6.70;99.90;;;5.91;100.00;95685.09;4981377;28;20499;-39
2022/11/18 05:49:06;;;;;;;0.32;0.20;;;6.80;99.90;;;6.03;100.00;95703.81;4979736;28;20034;-40
2022/11/18 05:51:32;;;;;;;1.65;0.20;;;6.70;99.90;;;6.01;100.00;95713.50;4983595;28;20072;-40
2022/11/18 05:54:05;;;;;;;0.80;0.20;;;6.80;99.90;;;6.04;100.00;95713.38;4979797;28;20750;-40
2022/11/18 05:56:45;;;;;;;0.20;0.20;;;6.70;99.90;;;6.05;100.00;95715.06;4987877;28;20077;-40
2022/11/18 05:59:12;;;;;;;0.38;0.20;;;6.70;99.90;;;6.05;100.00;95720.31;4987955;28;20096;-40
2022/11/18 06:01:54;;;;;;;0.70;0.30;;;6.70;99.90;;;6.04;100.00;95708.97;4989473;28;20113;-40
2022/11/18 06:04:41;;;;;;;2.47;0.20;;;6.70;99.90;;;6.02;100.00;95726.50;4982768;28;20038;-40
2022/11/18 06:07:33;;;;;;;0.30;0.20;;;6.70;99.90;;;5.98;100.00;95727.56;5007969;28;20713;-40
2022/11/18 06:09:59;;;;;;;0.20;0.20;;;6.70;99.90;;;5.96;100.00;95728.56;4988648;28;20041;-40
2022/11/18 06:12:30;;;;;;;1.13;0.10;;;6.70;99.90;;;5.93;100.00;95732.97;4987802;28;20038;-40
2022/11/18 06:15:15;;;;;;;0.40;0.17;;;6.60;99.90;;;5.91;100.00;95733.97;4988707;28;20032;-40
2022/11/18 06:17:59;;;;;;;1.05;0.20;;;6.60;99.90;;;5.89;100.00;95731.44;4994233;28;20078;-40
2022/11/18 06:20:26;;;;;;;0.90;0.20;;;6.60;99.90;;;5.88;100.00;95732.31;4996032;28;20033;-39
2022/11/18 06:22:55;;;;;;;0.40;0.20;;;6.50;99.90;;;5.86;100.00;95742.00;4997026;28;20041;-39
2022/11/18 06:25:22;;;;;;;0.30;0.20;;;6.60;99.90;;;5.84;100.00;95737.78;4988602;28;20107;-39
2022/11/18 06:27:49;;;;;;;0.20;0.10;;;6.50;99.90;;;5.81;100.00;95738.75;4991852;28;20117;-39
2022/11/18 06:30:16;;;;;;;0.60;0.20;;;6.50;99.90;;;5.81;100.00;95746.59;4987819;28;20052;-39
2022/11/18 06:32:41;;;;;;;0.20;0.17;;;6.50;99.90;;;5.79;100.00;95742.38;4987614;28;20034;-39
2022/11/18 06:35:08;;;;;;;0.70;0.15;;;6.50;99.90;;;5.78;100.00;95745.88;4987934;28;20037;-39
2022/11/18 06:37:34;;;;;;;0.77;0.32;;;6.50;99.90;;;5.77;100.00;95746.81;4987971;28;20038;-39
2022/11/18 06:40:00;;;;;;;0.93;0.35;;;6.50;99.90;;;5.77;100.00;95750.28;4992695;28;20037;-39
2022/11/18 06:45:12;;;;;;;0.30;0.20;;;6.50;99.90;;;5.77;100.00;95746.81;4981720;28;20464;-40
2022/11/18 06:47:38;;;;;;;2.58;0.50;;;6.50;99.90;;;5.84;100.00;95763.94;4992267;28;20121;-40
2022/11/18 06:50:05;;;;;;;0.50;0.30;;;6.60;99.90;;;5.83;100.00;95760.50;4989268;28;20143;-39
2022/11/18 06:52:30;;;;;;;1.08;0.30;;;6.60;99.90;;;5.89;100.00;95769.81;4979603;28;20132;-39
2022/11/18 06:54:56;;;;;;;0.45;0.20;;;6.60;99.90;;;5.91;100.00;95773.22;4968559;28;20371;-39
2022/11/18 06:57:22;;;;;;;0.63;0.45;;;6.60;99.90;;;5.93;100.00;95774.84;4980198;28;20027;-40
2022/11/18 06:59:47;;;;;;;1.45;0.30;;;6.60;99.90;;;5.88;100.00;95766.34;4982685;28;20137;-40
2022/11/18 07:02:13;;;;;;;0.43;0.30;;;6.70;99.90;;;5.97;100.00;95775.59;4980941;28;20419;-39
2022/11/18 07:04:40;;;;;;;0.57;0.20;;;6.70;99.90;;;6.01;100.00;95785.00;4974697;28;20145;-39
2022/11/18 07:07:06;;;;;;;0.90;0.30;;;6.70;99.90;;;6.05;100.00;95785.72;4981776;28;20048;-39
2022/11/18 07:09:34;;;;;;;4.40;0.50;;;6.80;99.90;;;6.06;100.00;95790.88;4983846;28;20049;-40
2022/11/18 07:12:00;;;;;;;0.35;0.30;;;6.80;99.90;;;6.07;100.00;95789.13;4990218;28;20038;-39
2022/11/18 07:14:26;;;;;;;1.52;0.22;;;6.80;99.90;;;6.08;100.00;95793.41;4984183;28;20225;-39
2022/11/18 07:16:51;;;;;;;0.43;0.28;;;6.80;99.90;;;6.15;100.00;95807.09;4981722;28;20036;-39
2022/11/18 07:19:17;;;;;;;1.38;0.38;;;6.80;99.90;;;6.17;100.00;95798.22;4972535;28;20389;-40
2022/11/18 07:21:43;;;;;;;1.20;0.40;;;6.90;99.90;;;6.17;100.00;95810.47;4978351;28;20058;-40
2022/11/18 07:24:12;;;;;;;0.90;0.38;;;6.90;99.90;;;6.03;100.00;95793.66;4983103;28;20022;-40
2022/11/18 07:26:38;;;;;;;0.50;0.40;;;6.80;99.90;;;6.10;100.00;95807.28;4984682;28;20044;-40
2022/11/18 07:29:04;;;;;;;0.93;0.35;;;6.80;99.90;;;6.17;100.00;95807.88;4984055;28;20033;-40
2022/11/18 07:31:31;;;;;;;0.70;0.50;;;6.90;99.90;;;6.22;100.00;95814.59;4982115;28;20032;-40
2022/11/18 07:33:57;;;;;;;0.43;0.30;;;6.90;99.90;;;6.21;100.00;95823.38;4974978;28;20400;-40
2022/11/18 07:36:27;;;;;;;1.73;0.35;;;6.90;99.90;;;6.21;100.00;95815.53;4989590;28;20018;-40
2022/11/18 07:38:54;;;;;;;1.00;0.28;;;7.00;99.90;;;6.20;100.00;95813.81;4984780;28;20038;-40
2022/11/18 07:41:23;;;;;;;0.80;0.40;;;6.90;99.90;;;6.28;100.00;95824.81;4983869;28;20037;-40
2022/11/18 07:43:50;;;;;;;0.88;0.47;;;7.00;99.90;;;6.35;100.00;95827.97;4985396;28;20041;-40
2022/11/18 07:46:30;;;;;;;0.22;0.22;;;7.10;99.90;;;6.41;100.00;95832.94;4991211;28;20022;-40
2022/11/18 07:48:58;;;;;;;0.65;0.30;;;7.10;99.90;;;6.46;100.00;95833.59;4991485;28;20052;-40
2022/11/18 07:51:27;;;;;;;1.33;0.40;;;7.20;99.90;;;6.48;100.00;95839.59;4984234;28;20456;-40
2022/11/18 07:53:53;;;;;;;2.10;0.30;;;7.20;99.90;;;6.53;100.00;95843.78;4983164;28;20180;-40
2022/11/18 07:56:19;;;;;;;0.47;0.38;;;7.20;99.90;;;6.58;100.00;95853.09;4983910;28;20025;-40
2022/11/18 07:58:45;;;;;;;0.95;0.40;;;7.20;99.90;;;6.62;100.00;95849.44;4974019;28;20030;-41
2022/11/18 08:01:15;;;;;;;0.98;0.35;;;7.30;99.90;;;6.67;100.00;95851.84;4982733;28;20438;-41
2022/11/18 08:03:41;;;;;;;0.47;0.43;;;7.30;99.90;;;6.73;100.00;95854.19;4977981;28;20030;-38
2022/11/18 08:06:09;;;;;;;0.70;0.35;;;7.40;99.90;;;6.71;100.00;95857.78;4979935;28;20570;-38
2022/11/18 08:08:35;;;;;;;9.00;0.70;;;7.40;99.90;;;6.59;100.00;95843.50;4987511;28;20425;-38
2022/11/18 08:11:05;;;;;;;2.97;0.50;;;7.40;99.90;;;6.70;100.00;95862.19;4977072;28;20124;-38
2022/11/18 08:13:31;;;;;;;3.83;0.93;;;7.40;99.90;;;6.73;100.00;95869.03;4980593;28;20034;-38
2022/11/18 08:15:57;;;;;;;1.33;0.52;;;7.40;99.90;;;6.78;100.00;95877.53;4979450;28;20041;-38
2022/11/18 08:18:23;;;;;;;0.70;0.30;;;7.50;99.90;;;6.69;100.00;95863.97;4985009;28;20061;-38
2022/11/18 08:20:50;;;;;;;0.52;0.30;;;7.50;99.90;;;6.78;100.00;95877.53;4989162;28;20041;-41
2022/11/18 08:23:16;;;;;;;0.25;0.20;;;7.50;99.90;;;6.79;100.00;95882.72;4991353;28;20274;-40
2022/11/18 08:25:44;;;;;;;2.65;0.30;;;7.50;99.90;;;6.78;100.00;95885.41;4990825;28;20504;-41
2022/11/18 08:28:11;;;;;;;0.43;0.30;;;7.50;99.90;;;6.78;100.00;95888.03;4993980;28;20056;-40
2022/11/18 08:30:38;;;;;;;1.67;0.57;;;7.50;99.90;;;6.79;100.00;95889.75;4988084;28;20417;-41
2022/11/18 08:33:04;;;;;;;0.55;0.40;;;7.50;99.90;;;6.69;100.00;95887.53;4984133;28;20488;-41
2022/11/18 08:35:32;;;;;;;3.95;0.52;;;7.50;99.90;;;6.76;100.00;95905.59;4989430;28;20472;-41
2022/11/18 08:37:58;;;;;;;6.20;1.90;;;7.50;99.90;;;6.77;100.00;95902.91;4992934;28;21542;-40
2022/11/18 08:40:24;;;;;;;0.50;0.40;;;7.50;99.90;;;6.65;100.00;95888.59;4991234;28;20056;-41
2022/11/18 08:42:50;;;;;;;0.43;0.32;;;7.50;99.90;;;6.89;100.00;95909.34;4992788;28;20026;-40
2022/11/18 08:45:16;;;;;;;3.38;0.50;;;7.60;99.90;;;6.92;100.00;95906.59;4993436;28;20511;-40
2022/11/18 08:47:42;;;;;;;3.40;1.20;;;7.60;99.90;;;6.97;100.00;95906.38;4987798;28;20413;-40
2022/11/18 08:50:10;;;;;;;1.73;0.60;;;7.70;99.90;;;6.94;100.00;95890.78;4990280;28;20161;-40
2022/11/18 08:52:36;;;;;;;2.75;0.40;;;7.70;99.90;;;6.95;100.00;95903.81;4986743;28;20038;-41
2022/11/18 08:55:03;;;;;;;1.48;0.40;;;7.80;99.90;;;6.98;100.00;95903.69;4990950;28;20030;-40
2022/11/18 08:57:29;;;;;;;0.35;0.30;;;7.80;99.90;;;7.07;100.00;95916.38;4986274;28;20084;-40
2022/11/18 08:59:54;;;;;;;0.80;0.40;;;7.80;99.90;;;7.13;100.00;95915.22;4987192;28;20475;-40
2022/11/18 09:02:22;;;;;;;0.57;0.30;;;7.90;99.90;;;7.15;100.00;95913.38;4984426;28;20037;-40
2022/11/18 09:04:52;;;;;;;1.55;0.30;;;7.90;99.90;;;7.09;100.00;95905.81;4981176;28;20053;-40
2022/11/18 09:07:19;;;;;;;0.63;0.30;;;8.00;99.90;;;7.22;100.00;95922.66;4983349;28;20041;-40
2022/11/18 09:09:45;;;;;;;0.70;0.30;;;8.00;99.90;;;7.21;100.00;95917.47;4983820;28;20029;-40
2022/11/18 09:12:13;;;;;;;2.10;0.75;;;8.00;99.90;;;7.24;100.00;95922.59;4989211;28;20586;-40
2022/11/18 09:14:42;;;;;;;0.20;0.10;;;8.00;99.90;;;7.33;100.00;95932.63;4990422;28;20034;-40
2022/11/18 09:17:08;;;;;;;0.57;0.22;;;8.00;99.90;;;7.30;100.00;95938.00;4985771;28;20370;-40
2022/11/18 09:19:33;;;;;;;0.70;0.30;;;8.10;99.90;;;7.21;100.00;95925.34;4986176;28;21122;-40
2022/11/18 09:21:59;;;;;;;0.55;0.20;;;8.00;99.90;;;7.26;100.00;95933.84;4989405;28;20034;-40
2022/11/18 09:24:25;;;;;;;0.65;0.30;;;8.00;99.90;;;7.28;100.00;95937.25;4988123;28;20045;-40
2022/11/18 09:26:52;;;;;;;0.63;0.32;;;8.00;99.90;;;7.29;100.00;95938.13;4987902;28;20472;-40
2022/11/18 09:29:19;;;;;;;1.40;0.47;;;8.00;99.90;;;7.35;100.00;95940.44;4987388;28;20150;-40
2022/11/18 09:31:44;;;;;;;1.05;0.32;;;8.00;99.90;;;7.33;100.00;95945.75;4981932;28;20537;-40
2022/11/18 09:34:10;;;;;;;0.88;0.45;;;8.00;99.90;;;7.38;100.00;95951.63;4987491;28;20296;-40
2022/11/18 09:36:36;;;;;;;0.63;0.28;;;8.10;99.90;;;7.29;100.00;95936.34;4987164;28;20764;-40
2022/11/18 09:39:02;;;;;;;0.47;0.20;;;8.10;99.90;;;7.28;100.00;95947.72;4989643;28;20697;-40
2022/11/18 09:41:41;;;;;;;0.45;0.30;;;8.00;99.90;;;7.29;100.00;95954.69;5002506;23;20133;-43
2022/11/18 09:44:34;;;;;;;2.95;1.17;;;8.00;99.90;;;7.27;100.00;95959.16;4968341;28;20034;-42
2022/11/18 09:47:31;;;;;;;2.30;1.17;;;8.00;99.90;;;7.29;100.00;95961.72;4975368;28;20034;-43
2022/11/18 09:50:09;;;;;;;1.17;0.70;;;8.00;99.90;;;7.36;100.00;95961.34;4976168;28;20601;-42
2022/11/18 09:52:46;;;;;;;0.80;0.40;;;8.00;99.90;;;7.42;100.00;95958.41;4964749;28;20061;-42
2022/11/18 09:55:14;;;;;;;0.68;0.20;;;8.10;99.90;;;7.52;100.00;95964.09;4960605;28;20027;-43
2022/11/18 09:57:48;;;;;;;0.52;0.30;;;8.20;99.90;;;7.66;100.00;95960.78;4958352;28;20058;-42
2022/11/18 10:00:22;;;;;;;2.55;1.10;;;8.30;99.90;;;7.82;100.00;95969.63;4946137;28;20105;-42
2022/11/18 10:03:12;;;;;;;1.20;0.60;;;8.50;99.90;;;7.95;100.00;95969.00;4960882;28;20475;-42
2022/11/18 10:05:49;;;;;;;1.67;0.47;;;8.60;99.90;;;8.06;100.00;95969.34;4960491;28;20058;-43
2022/11/18 10:08:31;;;;;;;0.47;0.47;;;8.70;99.90;;;8.09;100.00;95971.78;4957758;28;20031;-43
2022/11/18 10:11:13;;;;;;;1.20;0.38;;;8.80;99.90;;;8.09;100.00;95979.69;4958874;28;20031;-42
2022/11/18 10:14:41;;;;;;;1.92;0.28;;;8.80;99.90;;;8.20;100.00;95980.00;4961653;28;20157;-42
2022/11/18 10:17:36;;;;;;;1.05;0.40;;;8.80;99.90;;;8.19;100.00;95987.97;4958291;28;21267;-42
2022/11/18 10:20:28;;;;;;;0.70;0.45;;;9.00;99.90;;;8.14;100.00;95996.06;4959366;28;20042;-42
2022/11/18 10:23:02;;;;;;;4.38;0.60;;;8.90;99.90;;;8.15;100.00;95982.00;4959753;28;20031;-43
2022/11/18 10:25:28;;;;;;;2.45;0.70;;;8.80;99.90;;;8.10;100.00;95981.38;4955419;28;20463;-42
2022/11/18 10:27:55;;;;;;;0.80;0.50;;;8.80;99.90;;;8.05;100.00;95993.03;4959263;28;20034;-42
2022/11/18 10:30:24;;;;;;;0.40;0.32;;;8.80;99.90;;;8.05;100.00;95986.00;4953459;28;20146;-42
2022/11/18 10:32:59;;;;;;;1.48;0.50;;;8.80;99.90;;;8.06;100.00;95992.97;4956215;28;20024;-43
2022/11/18 10:35:37;;;;;;;0.70;0.50;;;8.70;99.90;;;8.05;100.00;96000.94;4952710;28;20508;-41
2022/11/18 10:38:23;;;;;;;0.43;0.40;;;8.70;99.90;;;8.11;100.00;96001.47;4961035;28;20568;-43
2022/11/18 10:40:51;;;;;;;2.92;0.73;;;8.70;99.90;;;8.16;100.00;96003.84;4954183;28;20073;-43
2022/11/18 10:43:49;;;;;;;1.30;0.55;;;8.80;99.90;;;8.32;100.00;96004.78;4958230;28;20041;-42
2022/11/18 10:46:29;;;;;;;0.85;0.57;;;8.90;99.90;;;8.46;100.00;96008.53;4941480;28;20187;-41
2022/11/18 10:49:11;;;;;;;0.90;0.50;;;9.10;99.90;;;8.65;100.00;96001.44;4956789;28;20029;-44
2022/11/18 10:51:38;;;;;;;0.93;0.65;;;9.30;99.90;;;8.73;100.00;95998.41;4954773;28;20590;-41
2022/11/18 10:54:13;;;;;;;1.80;0.70;;;9.30;99.90;;;8.55;100.00;95998.41;4956209;28;20034;-41